JAL2464 RJKA-RJOO
Flight info
| Callsign | JAL2464 |
|---|---|
| Flight time | 1h 12m |
| Altitude | 39000 |
| Route | RURIK Y53 MADOG Y753 IZUMI |
| Aircraft | B738/M-SDE2E3FGHIRWXY/LB1 |
Departure
| Time | 2026-04-21 02:42 |
|---|---|
| Airport | Amami Airport (RJKA) |
Arrival
| Time | 2026-04-21 03:55 |
|---|---|
| Airport | Osaka Itami International Airport (RJOO) |
| Time | Latitude | Longitude | Altitude | Speed | Heading |
|---|---|---|---|---|---|
| 2026-04-21 02:20 | 28.43116 | 129.70902 | 26 ft | 0 kts | 296° |
| 2026-04-21 02:34 | 28.43113 | 129.70908 | 32 ft | 4 kts | 296° |
| 2026-04-21 02:34 | 28.43102 | 129.70936 | 25 ft | 4 kts | 291° |
| 2026-04-21 02:35 | 28.43094 | 129.70965 | 27 ft | 4 kts | 273° |
| 2026-04-21 02:35 | 28.43095 | 129.70990 | 24 ft | 4 kts | 248° |
| 2026-04-21 02:35 | 28.43111 | 129.71010 | 24 ft | 4 kts | 202° |
| 2026-04-21 02:35 | 28.43127 | 129.71017 | 22 ft | 1 kts | 205° |
| 2026-04-21 02:38 | 28.43124 | 129.71016 | 22 ft | 2 kts | 205° |
| 2026-04-21 02:38 | 28.43092 | 129.71012 | 22 ft | 8 kts | 166° |
| 2026-04-21 02:38 | 28.43016 | 129.71021 | 22 ft | 14 kts | 199° |
| 2026-04-21 02:38 | 28.42928 | 129.70974 | 25 ft | 14 kts | 205° |
| 2026-04-21 02:39 | 28.42842 | 129.70927 | 25 ft | 14 kts | 205° |
| 2026-04-21 02:39 | 28.42746 | 129.70874 | 31 ft | 17 kts | 206° |
| 2026-04-21 02:39 | 28.42643 | 129.70818 | 28 ft | 16 kts | 206° |
| 2026-04-21 02:39 | 28.42544 | 129.70763 | 31 ft | 15 kts | 206° |
| 2026-04-21 02:40 | 28.42449 | 129.70711 | 34 ft | 15 kts | 206° |
| 2026-04-21 02:40 | 28.42365 | 129.70665 | 34 ft | 11 kts | 200° |
| 2026-04-21 02:40 | 28.42310 | 129.70705 | 33 ft | 10 kts | 115° |
| 2026-04-21 02:40 | 28.42283 | 129.70771 | 33 ft | 8 kts | 115° |
| 2026-04-21 02:41 | 28.42279 | 129.70818 | 34 ft | 6 kts | 53° |
| 2026-04-21 02:41 | 28.42297 | 129.70833 | 33 ft | 0 kts | 26° |
| 2026-04-21 02:41 | 28.42298 | 129.70833 | 33 ft | 2 kts | 26° |
| 2026-04-21 02:41 | 28.42472 | 129.70928 | 31 ft | 66 kts | 25° |
| 2026-04-21 02:42 | 28.43112 | 129.71280 | 26 ft | 135 kts | 25° |
| 2026-04-21 02:42 | 28.44075 | 129.71794 | 437 ft | 158 kts | 24° |
| 2026-04-21 02:42 | 28.45052 | 129.72333 | 1336 ft | 159 kts | 25° |
| 2026-04-21 02:42 | 28.46123 | 129.72940 | 1849 ft | 183 kts | 26° |
| 2026-04-21 02:43 | 28.47338 | 129.73649 | 2223 ft | 206 kts | 26° |
| 2026-04-21 02:43 | 28.48622 | 129.74391 | 2973 ft | 209 kts | 26° |
| 2026-04-21 02:43 | 28.49934 | 129.75146 | 3752 ft | 221 kts | 26° |
| 2026-04-21 02:43 | 28.51398 | 129.75987 | 4111 ft | 249 kts | 25° |
| 2026-04-21 02:44 | 28.52988 | 129.76899 | 4818 ft | 260 kts | 26° |
| 2026-04-21 02:44 | 28.54604 | 129.77830 | 5727 ft | 262 kts | 25° |
| 2026-04-21 02:44 | 28.56267 | 129.78787 | 6397 ft | 273 kts | 25° |
| 2026-04-21 02:44 | 28.57971 | 129.79768 | 7163 ft | 276 kts | 24° |
| 2026-04-21 02:45 | 28.59696 | 129.80759 | 7955 ft | 280 kts | 24° |
| 2026-04-21 02:45 | 28.61454 | 129.81769 | 8697 ft | 286 kts | 24° |
| 2026-04-21 02:45 | 28.63252 | 129.82802 | 9417 ft | 293 kts | 24° |
| 2026-04-21 02:45 | 28.65083 | 129.83855 | 10183 ft | 298 kts | 24° |
| 2026-04-21 02:46 | 28.67001 | 129.84957 | 10491 ft | 321 kts | 24° |
| 2026-04-21 02:46 | 28.69032 | 129.86125 | 10685 ft | 343 kts | 24° |
| 2026-04-21 02:46 | 28.71209 | 129.87380 | 11133 ft | 354 kts | 24° |
| 2026-04-21 02:46 | 28.73417 | 129.88654 | 11793 ft | 358 kts | 24° |
| 2026-04-21 02:47 | 28.75655 | 129.89946 | 12400 ft | 364 kts | 24° |
| 2026-04-21 02:47 | 28.77932 | 129.91261 | 13003 ft | 371 kts | 24° |
| 2026-04-21 02:47 | 28.80252 | 129.92601 | 13633 ft | 377 kts | 24° |
| 2026-04-21 02:47 | 28.82608 | 129.93963 | 14218 ft | 383 kts | 24° |
| 2026-04-21 02:48 | 28.84995 | 129.95343 | 14831 ft | 386 kts | 24° |
| 2026-04-21 02:48 | 28.87371 | 129.96719 | 15483 ft | 390 kts | 24° |
| 2026-04-21 02:48 | 28.89800 | 129.98125 | 16124 ft | 394 kts | 23° |
| 2026-04-21 02:48 | 28.92260 | 129.99549 | 16720 ft | 399 kts | 23° |
| 2026-04-21 02:49 | 28.94752 | 130.00992 | 17326 ft | 404 kts | 23° |
| 2026-04-21 02:49 | 28.97271 | 130.02451 | 17952 ft | 408 kts | 22° |
| 2026-04-21 02:49 | 28.99814 | 130.03926 | 18538 ft | 412 kts | 22° |
| 2026-04-21 02:49 | 29.02384 | 130.05417 | 19079 ft | 416 kts | 22° |
| 2026-04-21 02:50 | 29.04973 | 130.06920 | 19609 ft | 419 kts | 22° |
| 2026-04-21 02:50 | 29.07547 | 130.08415 | 20150 ft | 423 kts | 22° |
| 2026-04-21 02:50 | 29.10186 | 130.09949 | 20631 ft | 428 kts | 22° |
| 2026-04-21 02:50 | 29.12858 | 130.11502 | 21122 ft | 433 kts | 22° |
| 2026-04-21 02:51 | 29.15554 | 130.13071 | 21641 ft | 436 kts | 22° |
| 2026-04-21 02:51 | 29.18271 | 130.14654 | 22168 ft | 440 kts | 22° |
| 2026-04-21 02:51 | 29.21011 | 130.16251 | 22662 ft | 444 kts | 22° |
| 2026-04-21 02:51 | 29.23775 | 130.17863 | 23144 ft | 448 kts | 21° |
| 2026-04-21 02:52 | 29.26565 | 130.19491 | 23627 ft | 452 kts | 21° |
| 2026-04-21 02:52 | 29.29381 | 130.21133 | 23987 ft | 457 kts | 21° |
| 2026-04-21 02:52 | 29.32140 | 130.22869 | 24392 ft | 462 kts | 26° |
| 2026-04-21 02:52 | 29.34863 | 130.24838 | 24873 ft | 464 kts | 28° |
| 2026-04-21 02:53 | 29.37554 | 130.26900 | 25338 ft | 465 kts | 29° |
| 2026-04-21 02:53 | 29.40235 | 130.28984 | 25792 ft | 466 kts | 29° |
| 2026-04-21 02:53 | 29.42924 | 130.31063 | 26210 ft | 468 kts | 28° |
| 2026-04-21 02:53 | 29.45644 | 130.33141 | 26616 ft | 470 kts | 28° |
| 2026-04-21 02:54 | 29.48376 | 130.35208 | 27015 ft | 471 kts | 28° |
| 2026-04-21 02:54 | 29.51121 | 130.37270 | 27410 ft | 473 kts | 28° |
| 2026-04-21 02:54 | 29.53846 | 130.39310 | 27792 ft | 474 kts | 28° |
| 2026-04-21 02:54 | 29.56615 | 130.41382 | 28188 ft | 476 kts | 28° |
| 2026-04-21 02:55 | 29.59393 | 130.43461 | 28558 ft | 478 kts | 28° |
| 2026-04-21 02:55 | 29.62181 | 130.45551 | 28926 ft | 479 kts | 27° |
| 2026-04-21 02:55 | 29.64981 | 130.47651 | 29252 ft | 482 kts | 27° |
| 2026-04-21 02:55 | 29.67790 | 130.49761 | 29624 ft | 483 kts | 27° |
| 2026-04-21 02:56 | 29.70603 | 130.51877 | 30010 ft | 483 kts | 27° |
| 2026-04-21 02:56 | 29.76251 | 130.56127 | 30564 ft | 487 kts | 27° |
| 2026-04-21 02:56 | 29.79056 | 130.58239 | 30786 ft | 491 kts | 27° |
| 2026-04-21 02:57 | 29.81922 | 130.60399 | 30965 ft | 494 kts | 27° |
| 2026-04-21 02:57 | 29.84807 | 130.62575 | 31180 ft | 497 kts | 27° |
| 2026-04-21 02:57 | 29.87701 | 130.64761 | 31448 ft | 498 kts | 27° |
| 2026-04-21 02:57 | 29.90596 | 130.66950 | 31790 ft | 497 kts | 27° |
| 2026-04-21 02:58 | 29.93484 | 130.69136 | 32147 ft | 496 kts | 27° |
| 2026-04-21 02:58 | 29.96371 | 130.71321 | 32477 ft | 497 kts | 27° |
| 2026-04-21 02:58 | 29.99263 | 130.73509 | 32735 ft | 498 kts | 27° |
| 2026-04-21 02:58 | 30.02126 | 130.75677 | 33019 ft | 499 kts | 27° |
| 2026-04-21 02:59 | 30.05024 | 130.77873 | 33363 ft | 498 kts | 27° |
| 2026-04-21 02:59 | 30.07913 | 130.80065 | 33704 ft | 497 kts | 27° |
| 2026-04-21 02:59 | 30.10802 | 130.82259 | 33998 ft | 498 kts | 27° |
| 2026-04-21 02:59 | 30.13696 | 130.84458 | 34266 ft | 499 kts | 26° |
| 2026-04-21 03:00 | 30.16599 | 130.86664 | 34468 ft | 500 kts | 26° |
| 2026-04-21 03:00 | 30.19512 | 130.88880 | 34728 ft | 500 kts | 26° |
| 2026-04-21 03:00 | 30.22407 | 130.91086 | 35040 ft | 499 kts | 26° |
| 2026-04-21 03:00 | 30.25262 | 130.93264 | 35368 ft | 497 kts | 26° |
| 2026-04-21 03:01 | 30.28141 | 130.95461 | 35675 ft | 495 kts | 26° |
| 2026-04-21 03:01 | 30.31021 | 130.97658 | 35903 ft | 497 kts | 26° |
| 2026-04-21 03:01 | 30.33912 | 130.99864 | 36064 ft | 499 kts | 26° |
| 2026-04-21 03:01 | 30.36808 | 131.02076 | 36316 ft | 498 kts | 26° |
| 2026-04-21 03:02 | 30.39696 | 131.04287 | 36612 ft | 497 kts | 26° |
| 2026-04-21 03:02 | 30.42576 | 131.06493 | 36896 ft | 496 kts | 26° |
| 2026-04-21 03:02 | 30.45450 | 131.08693 | 37144 ft | 496 kts | 26° |
| 2026-04-21 03:02 | 30.48296 | 131.10873 | 37353 ft | 497 kts | 26° |
| 2026-04-21 03:03 | 30.51177 | 131.13084 | 37598 ft | 496 kts | 26° |
| 2026-04-21 03:03 | 30.54054 | 131.15293 | 37867 ft | 495 kts | 26° |
| 2026-04-21 03:03 | 30.56921 | 131.17497 | 38116 ft | 494 kts | 26° |
| 2026-04-21 03:03 | 30.59788 | 131.19702 | 38315 ft | 494 kts | 26° |
| 2026-04-21 03:04 | 30.62656 | 131.21909 | 38546 ft | 495 kts | 26° |
| 2026-04-21 03:04 | 30.65522 | 131.24116 | 38779 ft | 494 kts | 26° |
| 2026-04-21 03:04 | 30.68340 | 131.26289 | 38990 ft | 492 kts | 26° |
| 2026-04-21 03:04 | 30.71196 | 131.28492 | 39075 ft | 494 kts | 26° |
| 2026-04-21 03:05 | 30.76948 | 131.32929 | 39079 ft | 496 kts | 26° |
| 2026-04-21 03:05 | 30.82679 | 131.37365 | 39073 ft | 494 kts | 25° |
| 2026-04-21 03:06 | 30.88381 | 131.41783 | 39064 ft | 491 kts | 25° |
| 2026-04-21 03:06 | 30.94015 | 131.46153 | 39070 ft | 489 kts | 25° |
| 2026-04-21 03:07 | 30.99677 | 131.50550 | 39082 ft | 488 kts | 25° |
| 2026-04-21 03:07 | 31.05325 | 131.54942 | 39078 ft | 488 kts | 25° |
| 2026-04-21 03:08 | 31.10967 | 131.59336 | 39078 ft | 488 kts | 25° |
| 2026-04-21 03:08 | 31.16585 | 131.63718 | 39084 ft | 489 kts | 25° |
| 2026-04-21 03:09 | 31.22242 | 131.68139 | 39088 ft | 490 kts | 25° |
| 2026-04-21 03:09 | 31.27904 | 131.72569 | 39113 ft | 491 kts | 25° |
| 2026-04-21 03:10 | 31.33504 | 131.77134 | 39083 ft | 501 kts | 32° |
| 2026-04-21 03:10 | 31.36008 | 131.80023 | 39083 ft | 511 kts | 43° |
| 2026-04-21 03:10 | 31.38302 | 131.83207 | 39096 ft | 512 kts | 44° |
| 2026-04-21 03:11 | 31.42836 | 131.89655 | 39098 ft | 513 kts | 44° |
| 2026-04-21 03:11 | 31.47393 | 131.96091 | 39084 ft | 513 kts | 43° |
| 2026-04-21 03:12 | 31.51946 | 132.02448 | 39075 ft | 512 kts | 43° |
| 2026-04-21 03:12 | 31.56529 | 132.08824 | 39091 ft | 511 kts | 43° |
| 2026-04-21 03:13 | 31.61105 | 132.15198 | 39077 ft | 510 kts | 43° |
| 2026-04-21 03:13 | 31.65668 | 132.21570 | 39065 ft | 510 kts | 43° |
| 2026-04-21 03:14 | 31.70185 | 132.27891 | 39081 ft | 509 kts | 43° |
| 2026-04-21 03:14 | 31.74738 | 132.34273 | 39075 ft | 509 kts | 43° |
| 2026-04-21 03:15 | 31.79280 | 132.40651 | 39062 ft | 509 kts | 43° |
| 2026-04-21 03:15 | 31.83819 | 132.47034 | 39074 ft | 509 kts | 43° |
| 2026-04-21 03:16 | 31.88331 | 132.53391 | 39067 ft | 510 kts | 43° |
| 2026-04-21 03:16 | 31.92870 | 132.59796 | 39070 ft | 510 kts | 43° |
| 2026-04-21 03:17 | 31.97420 | 132.66227 | 39065 ft | 512 kts | 43° |
| 2026-04-21 03:17 | 32.01972 | 132.72674 | 39065 ft | 512 kts | 43° |
| 2026-04-21 03:18 | 32.06500 | 132.79096 | 39101 ft | 513 kts | 43° |
| 2026-04-21 03:18 | 32.11064 | 132.85581 | 39066 ft | 514 kts | 43° |
| 2026-04-21 03:19 | 32.15626 | 132.92075 | 39058 ft | 514 kts | 43° |
| 2026-04-21 03:19 | 32.20150 | 132.98528 | 39073 ft | 513 kts | 43° |
| 2026-04-21 03:20 | 32.24693 | 133.05017 | 39046 ft | 513 kts | 43° |
| 2026-04-21 03:20 | 32.29230 | 133.11509 | 39051 ft | 512 kts | 43° |
| 2026-04-21 03:21 | 32.33757 | 133.17997 | 39059 ft | 511 kts | 43° |
| 2026-04-21 03:21 | 32.38282 | 133.24492 | 39042 ft | 511 kts | 43° |
| 2026-04-21 03:22 | 32.42759 | 133.30932 | 39055 ft | 510 kts | 43° |
| 2026-04-21 03:22 | 32.47260 | 133.37417 | 39044 ft | 509 kts | 43° |
| 2026-04-21 03:23 | 32.51756 | 133.43905 | 39023 ft | 509 kts | 44° |
| 2026-04-21 03:23 | 32.56248 | 133.50398 | 39083 ft | 509 kts | 43° |
| 2026-04-21 03:24 | 32.60716 | 133.56868 | 39059 ft | 511 kts | 43° |
| 2026-04-21 03:24 | 32.65219 | 133.63400 | 38952 ft | 514 kts | 43° |
| 2026-04-21 03:25 | 32.67491 | 133.66696 | 38734 ft | 516 kts | 44° |
| 2026-04-21 03:25 | 32.69752 | 133.69985 | 38483 ft | 513 kts | 43° |
| 2026-04-21 03:25 | 32.72003 | 133.73266 | 38207 ft | 512 kts | 43° |
| 2026-04-21 03:25 | 32.74222 | 133.76501 | 37954 ft | 512 kts | 43° |
| 2026-04-21 03:26 | 32.76503 | 133.79826 | 37682 ft | 512 kts | 43° |
| 2026-04-21 03:26 | 32.78720 | 133.83060 | 37419 ft | 513 kts | 43° |
| 2026-04-21 03:26 | 32.80972 | 133.86348 | 37117 ft | 512 kts | 43° |
| 2026-04-21 03:26 | 32.83218 | 133.89632 | 36526 ft | 511 kts | 43° |
| 2026-04-21 03:27 | 32.85457 | 133.92909 | 35980 ft | 510 kts | 43° |
| 2026-04-21 03:27 | 32.87698 | 133.96190 | 35350 ft | 512 kts | 43° |
| 2026-04-21 03:27 | 32.89947 | 133.99483 | 34715 ft | 514 kts | 43° |
| 2026-04-21 03:27 | 32.92205 | 134.02793 | 34064 ft | 517 kts | 43° |
| 2026-04-21 03:28 | 32.94477 | 134.06127 | 33273 ft | 520 kts | 43° |
| 2026-04-21 03:28 | 32.96755 | 134.09476 | 32560 ft | 521 kts | 44° |
| 2026-04-21 03:28 | 32.99010 | 134.12794 | 31845 ft | 523 kts | 44° |
| 2026-04-21 03:28 | 33.01298 | 134.16167 | 31247 ft | 522 kts | 44° |
| 2026-04-21 03:29 | 33.03571 | 134.19521 | 30759 ft | 518 kts | 44° |
| 2026-04-21 03:29 | 33.05847 | 134.22837 | 30208 ft | 514 kts | 42° |
| 2026-04-21 03:29 | 33.08326 | 134.25840 | 29617 ft | 502 kts | 33° |
| 2026-04-21 03:29 | 33.10953 | 134.28543 | 29073 ft | 496 kts | 32° |
| 2026-04-21 03:30 | 33.13591 | 134.31161 | 28540 ft | 491 kts | 32° |
| 2026-04-21 03:30 | 33.16209 | 134.33745 | 28066 ft | 486 kts | 32° |
| 2026-04-21 03:30 | 33.18798 | 134.36322 | 27537 ft | 483 kts | 33° |
| 2026-04-21 03:30 | 33.21295 | 134.38895 | 27029 ft | 480 kts | 34° |
| 2026-04-21 03:31 | 33.23833 | 134.41463 | 26530 ft | 474 kts | 33° |
| 2026-04-21 03:31 | 33.26342 | 134.44009 | 26004 ft | 471 kts | 34° |
| 2026-04-21 03:31 | 33.28822 | 134.46541 | 25545 ft | 468 kts | 34° |
| 2026-04-21 03:31 | 33.31282 | 134.49065 | 25059 ft | 464 kts | 34° |
| 2026-04-21 03:32 | 33.33716 | 134.51570 | 24553 ft | 461 kts | 34° |
| 2026-04-21 03:32 | 33.36143 | 134.54071 | 24057 ft | 459 kts | 35° |
| 2026-04-21 03:32 | 33.38553 | 134.56554 | 23540 ft | 456 kts | 35° |
| 2026-04-21 03:32 | 33.40915 | 134.58990 | 22976 ft | 453 kts | 35° |
| 2026-04-21 03:33 | 33.43289 | 134.61441 | 22482 ft | 449 kts | 34° |
| 2026-04-21 03:33 | 33.45642 | 134.63870 | 21938 ft | 444 kts | 34° |
| 2026-04-21 03:33 | 33.47970 | 134.66275 | 21443 ft | 440 kts | 34° |
| 2026-04-21 03:33 | 33.50284 | 134.68667 | 20962 ft | 436 kts | 34° |
| 2026-04-21 03:34 | 33.52567 | 134.71029 | 20478 ft | 433 kts | 34° |
| 2026-04-21 03:34 | 33.54834 | 134.73374 | 20023 ft | 429 kts | 34° |
| 2026-04-21 03:34 | 33.57088 | 134.75708 | 19535 ft | 427 kts | 33° |
| 2026-04-21 03:34 | 33.59317 | 134.77972 | 19067 ft | 422 kts | 30° |
| 2026-04-21 03:35 | 33.61702 | 134.79915 | 18759 ft | 407 kts | 23° |
| 2026-04-21 03:35 | 33.64104 | 134.81655 | 18442 ft | 400 kts | 22° |
| 2026-04-21 03:35 | 33.66481 | 134.83339 | 18122 ft | 395 kts | 22° |
| 2026-04-21 03:35 | 33.68834 | 134.85016 | 17797 ft | 391 kts | 22° |
| 2026-04-21 03:36 | 33.71152 | 134.86689 | 17494 ft | 388 kts | 22° |
| 2026-04-21 03:36 | 33.73465 | 134.88373 | 17205 ft | 390 kts | 23° |
| 2026-04-21 03:36 | 33.75791 | 134.90078 | 16916 ft | 392 kts | 24° |
| 2026-04-21 03:36 | 33.78110 | 134.91786 | 16623 ft | 389 kts | 24° |
| 2026-04-21 03:37 | 33.80375 | 134.93458 | 16336 ft | 386 kts | 24° |
| 2026-04-21 03:37 | 33.82652 | 134.95138 | 16062 ft | 382 kts | 24° |
| 2026-04-21 03:37 | 33.84912 | 134.96810 | 15776 ft | 380 kts | 24° |
| 2026-04-21 03:37 | 33.87160 | 134.98477 | 15483 ft | 379 kts | 24° |
| 2026-04-21 03:38 | 33.89398 | 135.00137 | 15208 ft | 377 kts | 25° |
| 2026-04-21 03:38 | 33.91622 | 135.01788 | 14926 ft | 376 kts | 25° |
| 2026-04-21 03:38 | 33.93841 | 135.03437 | 14648 ft | 374 kts | 25° |
| 2026-04-21 03:38 | 33.96059 | 135.05086 | 14370 ft | 373 kts | 25° |
| 2026-04-21 03:39 | 33.98249 | 135.06779 | 13886 ft | 380 kts | 29° |
| 2026-04-21 03:39 | 34.00331 | 135.08640 | 13355 ft | 377 kts | 32° |
| 2026-04-21 03:39 | 34.02359 | 135.10569 | 12947 ft | 366 kts | 33° |
| 2026-04-21 03:39 | 34.04325 | 135.12465 | 12647 ft | 359 kts | 32° |
| 2026-04-21 03:40 | 34.06257 | 135.14320 | 12342 ft | 351 kts | 32° |
| 2026-04-21 03:40 | 34.08161 | 135.16131 | 12041 ft | 346 kts | 31° |
| 2026-04-21 03:40 | 34.10050 | 135.17916 | 11731 ft | 343 kts | 31° |
| 2026-04-21 03:40 | 34.11925 | 135.19680 | 11477 ft | 340 kts | 31° |
| 2026-04-21 03:41 | 34.13769 | 135.21408 | 11149 ft | 340 kts | 31° |
| 2026-04-21 03:41 | 34.15630 | 135.23152 | 10836 ft | 337 kts | 32° |
| 2026-04-21 03:41 | 34.17469 | 135.24876 | 10507 ft | 332 kts | 32° |
| 2026-04-21 03:41 | 34.19267 | 135.26564 | 10334 ft | 322 kts | 32° |
| 2026-04-21 03:42 | 34.21004 | 135.28198 | 10207 ft | 311 kts | 32° |
| 2026-04-21 03:42 | 34.22682 | 135.29775 | 10080 ft | 301 kts | 31° |
| 2026-04-21 03:42 | 34.24302 | 135.31297 | 9956 ft | 290 kts | 31° |
| 2026-04-21 03:42 | 34.25856 | 135.32759 | 9810 ft | 275 kts | 31° |
| 2026-04-21 03:43 | 34.27338 | 135.34153 | 9476 ft | 269 kts | 31° |
| 2026-04-21 03:43 | 34.28824 | 135.35543 | 9103 ft | 269 kts | 31° |
| 2026-04-21 03:43 | 34.30284 | 135.36910 | 8778 ft | 269 kts | 31° |
| 2026-04-21 03:43 | 34.31759 | 135.38293 | 8462 ft | 268 kts | 31° |
| 2026-04-21 03:44 | 34.33233 | 135.39677 | 8137 ft | 268 kts | 31° |
| 2026-04-21 03:44 | 34.34705 | 135.41060 | 7814 ft | 268 kts | 31° |
| 2026-04-21 03:44 | 34.36180 | 135.42448 | 7507 ft | 268 kts | 31° |
| 2026-04-21 03:44 | 34.37651 | 135.43833 | 7225 ft | 265 kts | 31° |
| 2026-04-21 03:45 | 34.39084 | 135.45188 | 6918 ft | 257 kts | 31° |
| 2026-04-21 03:45 | 34.40451 | 135.46481 | 6631 ft | 249 kts | 31° |
| 2026-04-21 03:45 | 34.41811 | 135.47764 | 6370 ft | 247 kts | 31° |
| 2026-04-21 03:45 | 34.43164 | 135.49039 | 6084 ft | 246 kts | 32° |
| 2026-04-21 03:46 | 34.44509 | 135.50307 | 5795 ft | 244 kts | 32° |
| 2026-04-21 03:46 | 34.45844 | 135.51566 | 5506 ft | 243 kts | 33° |
| 2026-04-21 03:46 | 34.47173 | 135.52821 | 5241 ft | 241 kts | 33° |
| 2026-04-21 03:46 | 34.48491 | 135.54066 | 4974 ft | 239 kts | 33° |
| 2026-04-21 03:47 | 34.49795 | 135.55300 | 4721 ft | 237 kts | 34° |
| 2026-04-21 03:47 | 34.51089 | 135.56524 | 4468 ft | 236 kts | 34° |
| 2026-04-21 03:47 | 34.52380 | 135.57746 | 4219 ft | 234 kts | 34° |
| 2026-04-21 03:47 | 34.53635 | 135.58935 | 4045 ft | 228 kts | 34° |
| 2026-04-21 03:48 | 34.54850 | 135.60088 | 3879 ft | 216 kts | 34° |
| 2026-04-21 03:48 | 34.56008 | 135.61186 | 3689 ft | 206 kts | 34° |
| 2026-04-21 03:48 | 34.57122 | 135.62242 | 3551 ft | 202 kts | 34° |
| 2026-04-21 03:48 | 34.58237 | 135.63298 | 3521 ft | 204 kts | 34° |
| 2026-04-21 03:49 | 34.59374 | 135.64303 | 3485 ft | 199 kts | 24° |
| 2026-04-21 03:49 | 34.60696 | 135.64460 | 3504 ft | 195 kts | 340° |
| 2026-04-21 03:49 | 34.61824 | 135.63533 | 3519 ft | 198 kts | 321° |
| 2026-04-21 03:49 | 34.62862 | 135.62485 | 3494 ft | 196 kts | 320° |
| 2026-04-21 03:50 | 34.63846 | 135.61387 | 3482 ft | 188 kts | 319° |
| 2026-04-21 03:50 | 34.64751 | 135.60314 | 3431 ft | 177 kts | 318° |
| 2026-04-21 03:50 | 34.65617 | 135.59267 | 3226 ft | 175 kts | 317° |
| 2026-04-21 03:50 | 34.66471 | 135.58231 | 3008 ft | 172 kts | 317° |
| 2026-04-21 03:51 | 34.67315 | 135.57206 | 2762 ft | 172 kts | 317° |
| 2026-04-21 03:51 | 34.68160 | 135.56180 | 2529 ft | 172 kts | 318° |
| 2026-04-21 03:51 | 34.69004 | 135.55157 | 2298 ft | 170 kts | 317° |
| 2026-04-21 03:51 | 34.69816 | 135.54170 | 2076 ft | 163 kts | 318° |
| 2026-04-21 03:52 | 34.70595 | 135.53223 | 1861 ft | 154 kts | 317° |
| 2026-04-21 03:52 | 34.71345 | 135.52313 | 1660 ft | 151 kts | 317° |
| 2026-04-21 03:52 | 34.72057 | 135.51451 | 1456 ft | 138 kts | 317° |
| 2026-04-21 03:52 | 34.72724 | 135.50641 | 1283 ft | 134 kts | 319° |
| 2026-04-21 03:53 | 34.73375 | 135.49850 | 1088 ft | 131 kts | 318° |
| 2026-04-21 03:53 | 34.74022 | 135.49068 | 931 ft | 131 kts | 319° |
| 2026-04-21 03:53 | 34.74675 | 135.48285 | 755 ft | 134 kts | 317° |
| 2026-04-21 03:53 | 34.75332 | 135.47480 | 596 ft | 136 kts | 315° |
| 2026-04-21 03:54 | 34.75992 | 135.46657 | 426 ft | 135 kts | 317° |
| 2026-04-21 03:54 | 34.76630 | 135.45888 | 273 ft | 129 kts | 319° |
| 2026-04-21 03:54 | 34.77263 | 135.45127 | 85 ft | 127 kts | 317° |
| 2026-04-21 03:54 | 34.77846 | 135.44428 | 49 ft | 100 kts | 313° |
| 2026-04-21 03:55 | 34.78188 | 135.44015 | 49 ft | 38 kts | 315° |
| 2026-04-21 03:55 | 34.78299 | 135.43878 | 48 ft | 20 kts | 315° |
| 2026-04-21 03:55 | 34.78396 | 135.43762 | 45 ft | 19 kts | 315° |
| 2026-04-21 03:55 | 34.78491 | 135.43650 | 49 ft | 19 kts | 316° |
| 2026-04-21 03:56 | 34.78594 | 135.43563 | 48 ft | 18 kts | 334° |
| 2026-04-21 03:56 | 34.78706 | 135.43500 | 47 ft | 17 kts | 335° |
| 2026-04-21 03:56 | 34.78813 | 135.43441 | 49 ft | 16 kts | 339° |
| 2026-04-21 03:56 | 34.78918 | 135.43425 | 49 ft | 15 kts | 4° |
| 2026-04-21 03:57 | 34.79015 | 135.43460 | 51 ft | 13 kts | 29° |
| 2026-04-21 03:57 | 34.79066 | 135.43549 | 49 ft | 13 kts | 80° |
| 2026-04-21 03:57 | 34.79066 | 135.43613 | 49 ft | 8 kts | 84° |
| 2026-04-21 03:57 | 34.79097 | 135.43670 | 49 ft | 8 kts | 47° |
| 2026-04-21 03:58 | 34.79134 | 135.43719 | 49 ft | 7 kts | 47° |
| 2026-04-21 03:58 | 34.79160 | 135.43754 | 49 ft | 0 kts | 47° |